Time;durP1;ratioP1;P1;durP2;ratioP2;P2;SDS_P1;SDS_P2;PMS_P1;PMS_P2;Temp;Humidity;BMP_temperature;BMP_pressure;BME280_temperature;BME280_humidity;BME280_pressure;Samples;Min_cycle;Max_cycle;Signal;HPM_P1;HPM_P2
2021/12/14 00:00:59;;;;;;;32.10;29.63;;;;;;;;;;4997322;28;20424;-85
2021/12/14 00:03:30;;;;;;;29.40;27.10;;;;;;;;;;4995892;28;20418;-84
2021/12/14 00:05:58;;;;;;;28.80;26.70;;;;;;;;;;4997380;28;20539;-85
2021/12/14 00:08:27;;;;;;;28.97;26.63;;;;;;;;;;4997182;28;20926;-84
2021/12/14 00:13:57;;;;;;;29.07;26.87;;;;;;;;;;4997444;28;20855;-85
2021/12/14 00:16:25;;;;;;;29.57;27.27;;;;;;;;;;4997040;28;20467;-85
2021/12/14 00:18:53;;;;;;;31.07;28.57;;;;;;;;;;4997805;28;20442;-84
2021/12/14 00:21:28;;;;;;;28.37;26.17;;;;;;;;;;4998087;28;20420;-85
2021/12/14 00:24:09;;;;;;;30.10;27.70;;;;;;;;;;4993897;28;20426;-85
2021/12/14 00:26:38;;;;;;;28.87;26.67;;;;;;;;;;4993498;28;20536;-85
2021/12/14 00:29:06;;;;;;;27.70;25.70;;;;;;;;;;4993614;28;20445;-85
2021/12/14 00:31:43;;;;;;;30.57;28.07;;;;;;;;;;4993573;28;20448;-85
2021/12/14 00:34:14;;;;;;;28.42;26.33;;;;;;;;;;4993746;28;20803;-85
2021/12/14 00:36:42;;;;;;;29.27;27.03;;;;;;;;;;4993443;28;20230;-85
2021/12/14 00:39:10;;;;;;;30.60;28.10;;;;;;;;;;4993326;28;20432;-85
2021/12/14 00:41:38;;;;;;;30.70;28.30;;;;;;;;;;4993619;28;20424;-85
2021/12/14 00:44:07;;;;;;;29.07;26.73;;;;;;;;;;4993497;28;20444;-85
2021/12/14 00:46:36;;;;;;;28.73;26.70;;;;;;;;;;4993652;28;20956;-85
2021/12/14 00:49:07;;;;;;;29.53;27.23;;;;;;;;;;4993552;28;20860;-84
2021/12/14 00:51:36;;;;;;;28.13;26.10;;;;;;;;;;4976484;28;20429;-85
2021/12/14 00:54:05;;;;;;;30.08;27.33;;;;;;;;;;4994093;28;20862;-85
2021/12/14 00:56:33;;;;;;;27.97;25.90;;;;;;;;;;4994573;28;20220;-85
2021/12/14 01:01:51;;;;;;;28.07;26.03;;;;;;;;;;4999478;28;20456;-83
2021/12/14 01:04:20;;;;;;;27.70;25.60;;;;;;;;;;4998620;28;20503;-85
2021/12/14 01:06:49;;;;;;;29.00;26.47;;;;;;;;;;4999044;28;20268;-85
2021/12/14 01:09:20;;;;;;;28.00;26.00;;;;;;;;;;4999761;28;20430;-85
2021/12/14 01:11:51;;;;;;;26.70;25.00;;;;;;;;;;4998788;28;20419;-85
2021/12/14 01:14:24;;;;;;;29.50;27.30;;;;;;;;;;4981280;28;20979;-85
2021/12/14 01:16:55;;;;;;;27.80;25.90;;;;;;;;;;4997285;28;20465;-84
2021/12/14 01:19:26;;;;;;;28.10;26.20;;;;;;;;;;4998587;28;20419;-85
2021/12/14 01:22:33;;;;;;;29.43;27.33;;;;;;;;;;4999424;28;20478;-85
2021/12/14 01:25:08;;;;;;;28.70;26.60;;;;;;;;;;4998186;28;20470;-84
2021/12/14 01:27:41;;;;;;;27.97;25.97;;;;;;;;;;5011969;28;20464;-84
2021/12/14 01:30:14;;;;;;;28.03;25.97;;;;;;;;;;5014599;28;20452;-85
2021/12/14 01:32:46;;;;;;;28.03;26.13;;;;;;;;;;5017814;28;20431;-85
2021/12/14 01:35:15;;;;;;;27.73;25.73;;;;;;;;;;5017029;28;20455;-85
2021/12/14 01:38:02;;;;;;;27.17;25.23;;;;;;;;;;5016212;28;20488;-84
2021/12/14 01:43:13;;;;;;;28.17;26.10;;;;;;;;;;5016305;28;20444;-85
2021/12/14 01:45:40;;;;;;;27.60;25.70;;;;;;;;;;5015959;28;20490;-85
2021/12/14 01:48:08;;;;;;;27.93;25.93;;;;;;;;;;4998531;28;20860;-85
2021/12/14 01:50:37;;;;;;;27.10;25.33;;;;;;;;;;5016347;28;20474;-84
2021/12/14 01:53:06;;;;;;;27.73;25.77;;;;;;;;;;5015556;28;20449;-85
2021/12/14 01:55:39;;;;;;;26.97;25.23;;;;;;;;;;4998514;28;21006;-85
2021/12/14 01:58:07;;;;;;;27.50;25.60;;;;;;;;;;5015649;28;20441;-85
2021/12/14 02:00:37;;;;;;;26.97;25.27;;;;;;;;;;5015958;28;21167;-84
2021/12/14 02:03:06;;;;;;;27.70;25.80;;;;;;;;;;5015588;28;20426;-85
2021/12/14 02:05:38;;;;;;;26.37;24.67;;;;;;;;;;5016087;28;20492;-85
2021/12/14 02:08:15;;;;;;;27.10;25.10;;;;;;;;;;5015825;28;20448;-84
2021/12/14 02:10:43;;;;;;;27.33;25.53;;;;;;;;;;5016911;28;20439;-85
2021/12/14 02:13:10;;;;;;;25.97;24.20;;;;;;;;;;5015762;28;20462;-84
2021/12/14 02:15:39;;;;;;;25.77;24.00;;;;;;;;;;5015290;28;20822;-85
2021/12/14 02:18:08;;;;;;;27.13;25.43;;;;;;;;;;5015693;28;20219;-84
2021/12/14 02:20:40;;;;;;;26.98;25.25;;;;;;;;;;5015824;28;20415;-85
2021/12/14 02:23:10;;;;;;;26.33;24.63;;;;;;;;;;5015929;28;20628;-85
2021/12/14 02:25:38;;;;;;;27.13;25.33;;;;;;;;;;5015782;28;20454;-85
2021/12/14 02:28:07;;;;;;;26.13;24.53;;;;;;;;;;4980261;28;20428;-84
2021/12/14 02:30:39;;;;;;;27.50;25.57;;;;;;;;;;4995861;28;20456;-85
2021/12/14 02:33:12;;;;;;;26.60;24.80;;;;;;;;;;4995887;28;20429;-85
2021/12/14 02:35:42;;;;;;;27.63;25.53;;;;;;;;;;4995974;28;20438;-85
2021/12/14 02:38:13;;;;;;;26.00;24.20;;;;;;;;;;4996545;28;20427;-85
2021/12/14 02:40:58;;;;;;;26.30;24.50;;;;;;;;;;4996743;28;20431;-85
2021/12/14 02:43:27;;;;;;;26.10;24.30;;;;;;;;;;4997731;28;20409;-85
2021/12/14 02:46:02;;;;;;;26.17;24.40;;;;;;;;;;4979790;28;20489;-84
2021/12/14 02:48:29;;;;;;;26.07;24.47;;;;;;;;;;4997582;28;20406;-85
2021/12/14 02:50:57;;;;;;;26.53;24.47;;;;;;;;;;4996923;28;20472;-84
2021/12/14 02:53:45;;;;;;;26.33;24.63;;;;;;;;;;4999831;28;20448;-84
2021/12/14 02:56:16;;;;;;;26.23;24.63;;;;;;;;;;4998291;28;20922;-85
2021/12/14 02:58:44;;;;;;;25.87;24.17;;;;;;;;;;4997152;28;20419;-85
2021/12/14 03:01:14;;;;;;;25.93;24.13;;;;;;;;;;4996874;28;20424;-84
2021/12/14 03:03:41;;;;;;;26.23;24.47;;;;;;;;;;4996477;28;20442;-84
2021/12/14 03:06:15;;;;;;;25.60;23.90;;;;;;;;;;4996662;28;20471;-85
2021/12/14 03:08:56;;;;;;;24.70;23.17;;;;;;;;;;5006494;28;20460;-85
2021/12/14 03:11:26;;;;;;;25.20;23.70;;;;;;;;;;4999014;28;20431;-85
2021/12/14 03:13:54;;;;;;;25.70;24.20;;;;;;;;;;4996016;28;20484;-85
2021/12/14 03:16:23;;;;;;;25.70;24.10;;;;;;;;;;4995739;28;20991;-85
2021/12/14 03:18:51;;;;;;;24.37;22.77;;;;;;;;;;4995908;28;20650;-84
2021/12/14 03:21:22;;;;;;;24.73;23.03;;;;;;;;;;4995891;28;20449;-84
2021/12/14 03:23:53;;;;;;;24.45;22.88;;;;;;;;;;4997105;28;20426;-85
2021/12/14 03:26:23;;;;;;;24.57;22.97;;;;;;;;;;4995840;28;20227;-84
2021/12/14 03:28:53;;;;;;;24.27;22.77;;;;;;;;;;4996238;28;20511;-84
2021/12/14 03:31:24;;;;;;;23.70;22.30;;;;;;;;;;4994634;28;20460;-84
2021/12/14 03:33:54;;;;;;;25.20;23.50;;;;;;;;;;4977165;28;20442;-84
2021/12/14 03:36:25;;;;;;;25.87;24.00;;;;;;;;;;4994791;28;20415;-85
2021/12/14 03:39:08;;;;;;;26.50;24.53;;;;;;;;;;4999256;28;20428;-85
2021/12/14 03:41:40;;;;;;;25.07;23.47;;;;;;;;;;4977842;28;20447;-84
2021/12/14 03:44:11;;;;;;;22.63;21.13;;;;;;;;;;4994452;28;20430;-85
2021/12/14 03:46:40;;;;;;;24.00;22.50;;;;;;;;;;4994396;28;20469;-85
2021/12/14 03:49:08;;;;;;;23.97;22.43;;;;;;;;;;4994499;28;20427;-85
2021/12/14 03:51:38;;;;;;;25.83;24.03;;;;;;;;;;4994230;28;20438;-85
2021/12/14 03:54:05;;;;;;;25.70;23.87;;;;;;;;;;5000750;28;20453;-84
2021/12/14 03:56:34;;;;;;;23.90;22.40;;;;;;;;;;4996694;28;20436;-84
2021/12/14 03:59:02;;;;;;;23.67;22.17;;;;;;;;;;4994858;28;20435;-84
2021/12/14 04:01:32;;;;;;;27.17;24.50;;;;;;;;;;4994551;28;20444;-85
2021/12/14 04:04:02;;;;;;;24.67;23.17;;;;;;;;;;4995163;28;20439;-85
2021/12/14 04:06:29;;;;;;;24.93;23.27;;;;;;;;;;5000572;28;20485;-85
2021/12/14 04:08:59;;;;;;;25.00;23.30;;;;;;;;;;5012388;28;20441;-85
2021/12/14 04:11:26;;;;;;;24.50;23.00;;;;;;;;;;5002780;28;20491;-85
2021/12/14 04:13:55;;;;;;;23.90;22.30;;;;;;;;;;4994988;28;20466;-85
2021/12/14 04:16:25;;;;;;;23.53;22.03;;;;;;;;;;4993926;28;20447;-85
2021/12/14 04:18:55;;;;;;;25.80;24.00;;;;;;;;;;4996509;28;20445;-85
2021/12/14 04:21:23;;;;;;;24.17;22.57;;;;;;;;;;4994145;28;20433;-85
2021/12/14 04:23:52;;;;;;;24.10;22.50;;;;;;;;;;5002783;28;20414;-83
2021/12/14 04:26:21;;;;;;;25.30;23.70;;;;;;;;;;4979014;28;20491;-85
2021/12/14 04:28:50;;;;;;;24.30;22.70;;;;;;;;;;5013421;28;20190;-85
2021/12/14 04:31:18;;;;;;;24.33;22.73;;;;;;;;;;5013753;28;20447;-85
2021/12/14 04:33:46;;;;;;;24.77;23.17;;;;;;;;;;5013875;28;20422;-85
2021/12/14 04:36:19;;;;;;;24.37;22.80;;;;;;;;;;5013901;28;20497;-84
2021/12/14 04:38:53;;;;;;;24.33;22.83;;;;;;;;;;5013442;28;20418;-85
2021/12/14 04:52:24;;;;;;;24.73;23.10;;;;;;;;;;5013010;28;20453;-85
2021/12/14 04:54:54;;;;;;;24.17;22.47;;;;;;;;;;5013301;28;20426;-85
2021/12/14 04:57:24;;;;;;;24.77;23.03;;;;;;;;;;5013287;28;20462;-85
2021/12/14 04:59:52;;;;;;;24.63;22.93;;;;;;;;;;5013435;28;20432;-85
2021/12/14 05:02:21;;;;;;;25.30;23.60;;;;;;;;;;5013195;28;20469;-85
2021/12/14 05:04:50;;;;;;;24.88;23.35;;;;;;;;;;5013582;28;20439;-85
2021/12/14 05:10:08;;;;;;;25.03;22.70;;;;;;;;;;5021395;28;20476;-84
2021/12/14 05:12:37;;;;;;;25.90;24.10;;;;;;;;;;5024391;28;20951;-85
2021/12/14 05:15:07;;;;;;;26.83;25.03;;;;;;;;;;4999490;28;20536;-85
2021/12/14 05:17:36;;;;;;;26.07;24.27;;;;;;;;;;5017222;28;21131;-85
2021/12/14 05:20:06;;;;;;;24.97;23.37;;;;;;;;;;5016726;28;20440;-85
2021/12/14 05:22:34;;;;;;;25.33;23.50;;;;;;;;;;5016921;28;20444;-85
2021/12/14 05:25:03;;;;;;;66.07;60.17;;;;;;;;;;5017003;28;20468;-84
2021/12/14 05:27:34;;;;;;;25.97;23.90;;;;;;;;;;5016688;28;20523;-84
2021/12/14 05:30:07;;;;;;;26.43;24.73;;;;;;;;;;5019897;28;20450;-84
2021/12/14 05:32:34;;;;;;;25.17;23.47;;;;;;;;;;5020188;28;20449;-85
2021/12/14 05:35:02;;;;;;;25.43;23.70;;;;;;;;;;5016450;28;20463;-85
2021/12/14 05:37:33;;;;;;;25.73;24.00;;;;;;;;;;5001311;28;20459;-85
2021/12/14 05:40:04;;;;;;;25.80;24.10;;;;;;;;;;5018167;28;20970;-84
2021/12/14 05:45:20;;;;;;;26.00;24.10;;;;;;;;;;5016091;28;20211;-85
2021/12/14 05:47:52;;;;;;;26.67;24.63;;;;;;;;;;5016190;28;20847;-84
2021/12/14 05:50:21;;;;;;;25.50;23.60;;;;;;;;;;5016243;28;20476;-85
2021/12/14 05:52:48;;;;;;;26.07;24.20;;;;;;;;;;4998934;28;20940;-85
2021/12/14 05:55:17;;;;;;;28.07;25.90;;;;;;;;;;5017316;28;20415;-85
2021/12/14 05:57:45;;;;;;;28.77;26.37;;;;;;;;;;5016584;28;20475;-85
2021/12/14 06:00:15;;;;;;;27.00;24.80;;;;;;;;;;5015979;28;20418;-85
2021/12/14 06:02:42;;;;;;;27.17;24.97;;;;;;;;;;4997853;28;20430;-84
2021/12/14 06:05:12;;;;;;;27.17;24.90;;;;;;;;;;5015968;28;20445;-85
2021/12/14 06:07:40;;;;;;;26.80;25.00;;;;;;;;;;5015706;28;20468;-85
2021/12/14 06:10:07;;;;;;;28.70;26.70;;;;;;;;;;5015425;28;20440;-84
2021/12/14 06:12:37;;;;;;;28.60;26.30;;;;;;;;;;5017099;28;20514;-85
2021/12/14 06:15:07;;;;;;;29.58;26.92;;;;;;;;;;5015897;28;20217;-85
2021/12/14 06:17:36;;;;;;;27.58;25.48;;;;;;;;;;5015456;28;20193;-88
2021/12/14 06:20:06;;;;;;;28.90;26.70;;;;;;;;;;5014816;28;20193;-83
2021/12/14 06:22:35;;;;;;;29.27;26.97;;;;;;;;;;5015508;28;20212;-84
2021/12/14 06:25:05;;;;;;;27.73;25.43;;;;;;;;;;5015589;28;21028;-84
2021/12/14 06:27:33;;;;;;;27.80;25.50;;;;;;;;;;5003335;28;20467;-84
2021/12/14 06:30:01;;;;;;;28.07;25.97;;;;;;;;;;4996203;28;20213;-84
2021/12/14 06:32:31;;;;;;;30.57;28.00;;;;;;;;;;4978625;28;20448;-85
2021/12/14 06:35:00;;;;;;;30.07;27.23;;;;;;;;;;4996084;28;20431;-85
2021/12/14 06:38:07;;;;;;;29.60;26.90;;;;;;;;;;4977955;28;20435;-85
2021/12/14 06:40:36;;;;;;;27.77;25.70;;;;;;;;;;4995353;28;21020;-84
2021/12/14 06:43:08;;;;;;;28.73;26.38;;;;;;;;;;4995034;28;20413;-84
2021/12/14 06:45:37;;;;;;;28.63;26.13;;;;;;;;;;4995099;28;20288;-85
2021/12/14 06:48:07;;;;;;;27.90;25.70;;;;;;;;;;4993967;28;20492;-86
2021/12/14 06:50:38;;;;;;;29.87;27.13;;;;;;;;;;4995474;28;20416;-84
2021/12/14 06:53:13;;;;;;;29.97;27.57;;;;;;;;;;4977885;28;20423;-84
2021/12/14 06:55:41;;;;;;;31.45;28.65;;;;;;;;;;4995231;28;20818;-83
2021/12/14 06:58:10;;;;;;;32.40;29.20;;;;;;;;;;4995355;28;20280;-84
2021/12/14 07:00:39;;;;;;;31.47;28.47;;;;;;;;;;4994945;28;20492;-84
2021/12/14 07:03:08;;;;;;;31.63;28.67;;;;;;;;;;4994892;28;20547;-85
2021/12/14 07:05:36;;;;;;;32.60;29.33;;;;;;;;;;4995217;28;20411;-84
2021/12/14 07:08:09;;;;;;;30.03;27.53;;;;;;;;;;4994651;28;20470;-84
2021/12/14 07:10:36;;;;;;;31.50;28.70;;;;;;;;;;4994862;28;20415;-83
2021/12/14 07:13:10;;;;;;;31.13;28.63;;;;;;;;;;4994515;28;20838;-84
2021/12/14 07:15:38;;;;;;;31.10;28.60;;;;;;;;;;4994143;28;20480;-84
2021/12/14 07:18:07;;;;;;;31.10;28.33;;;;;;;;;;4994377;28;20423;-84
2021/12/14 07:20:39;;;;;;;29.23;26.83;;;;;;;;;;4994633;28;20491;-84
2021/12/14 07:23:17;;;;;;;37.30;33.80;;;;;;;;;;4994739;28;20500;-84
2021/12/14 07:25:44;;;;;;;32.27;29.57;;;;;;;;;;4994569;28;20437;-84
2021/12/14 07:28:13;;;;;;;30.40;28.00;;;;;;;;;;5011012;28;20480;-84
2021/12/14 07:30:41;;;;;;;32.37;29.53;;;;;;;;;;5013891;28;20489;-83
2021/12/14 07:33:11;;;;;;;31.63;28.97;;;;;;;;;;5013650;28;20888;-84
2021/12/14 07:35:42;;;;;;;31.77;29.27;;;;;;;;;;5013794;28;20477;-84
2021/12/14 07:38:22;;;;;;;33.33;30.33;;;;;;;;;;5014091;28;20418;-84
2021/12/14 07:40:51;;;;;;;34.20;31.10;;;;;;;;;;5013612;28;20508;-84
2021/12/14 07:43:19;;;;;;;33.00;30.08;;;;;;;;;;5013247;28;20414;-84
2021/12/14 07:45:48;;;;;;;270.70;119.13;;;;;;;;;;5013924;28;20193;-84
2021/12/14 07:48:15;;;;;;;31.43;28.73;;;;;;;;;;5013816;28;20228;-83
2021/12/14 07:50:47;;;;;;;37.60;33.80;;;;;;;;;;5013485;28;20431;-81
2021/12/14 07:53:14;;;;;;;34.40;31.33;;;;;;;;;;5013286;28;20414;-81
2021/12/14 07:55:43;;;;;;;32.23;29.53;;;;;;;;;;5015708;28;20921;-82
2021/12/14 07:58:11;;;;;;;33.03;30.03;;;;;;;;;;5014213;28;20444;-82
2021/12/14 08:00:40;;;;;;;34.07;31.13;;;;;;;;;;5012694;28;20463;-82
2021/12/14 08:03:08;;;;;;;36.87;33.10;;;;;;;;;;5012857;28;20962;-82
2021/12/14 08:05:39;;;;;;;34.20;31.20;;;;;;;;;;5012883;28;20455;-82
2021/12/14 08:08:15;;;;;;;36.10;32.70;;;;;;;;;;5012992;28;20490;-81
2021/12/14 08:10:45;;;;;;;36.10;32.77;;;;;;;;;;5012806;28;20476;-81
2021/12/14 08:13:15;;;;;;;36.23;32.83;;;;;;;;;;5012518;28;20523;-82
2021/12/14 08:15:47;;;;;;;37.53;34.00;;;;;;;;;;5012733;28;20497;-81
2021/12/14 08:18:16;;;;;;;35.43;32.27;;;;;;;;;;5013061;28;20461;-81
2021/12/14 08:20:48;;;;;;;38.93;34.77;;;;;;;;;;5011374;28;20878;-82
2021/12/14 08:23:19;;;;;;;35.93;32.50;;;;;;;;;;5012787;28;20451;-81
2021/12/14 08:25:47;;;;;;;38.30;34.67;;;;;;;;;;5013975;28;20413;-83
2021/12/14 08:28:18;;;;;;;37.53;33.63;;;;;;;;;;4997753;28;20459;-82
2021/12/14 08:30:53;;;;;;;156.93;120.88;;;;;;;;;;4995324;28;20423;-83
2021/12/14 08:33:24;;;;;;;37.97;34.37;;;;;;;;;;4993540;28;20211;-82
2021/12/14 08:35:52;;;;;;;37.30;33.60;;;;;;;;;;4994962;28;20866;-83
2021/12/14 08:38:20;;;;;;;38.17;34.23;;;;;;;;;;5008652;28;20415;-83
2021/12/14 08:40:49;;;;;;;39.42;35.65;;;;;;;;;;5005349;28;20951;-83
2021/12/14 08:43:23;;;;;;;37.47;33.87;;;;;;;;;;4994989;28;20551;-83
2021/12/14 08:45:52;;;;;;;40.43;36.23;;;;;;;;;;4994847;28;20775;-82
2021/12/14 08:48:23;;;;;;;40.80;36.10;;;;;;;;;;4994850;28;20484;-87
2021/12/14 08:50:54;;;;;;;41.60;37.37;;;;;;;;;;4994144;28;20449;-82
2021/12/14 08:53:24;;;;;;;40.77;36.27;;;;;;;;;;4994070;28;20440;-82
2021/12/14 08:55:54;;;;;;;43.53;38.87;;;;;;;;;;4993703;28;20412;-82
2021/12/14 08:58:22;;;;;;;40.20;36.40;;;;;;;;;;4992954;28;20432;-93
2021/12/14 09:00:52;;;;;;;41.57;37.17;;;;;;;;;;4997710;28;20422;-96
2021/12/14 09:03:24;;;;;;;40.53;36.53;;;;;;;;;;4998811;28;20456;-96
2021/12/14 09:05:52;;;;;;;44.87;40.03;;;;;;;;;;4994942;28;20304;-92
2021/12/14 09:08:20;;;;;;;44.57;39.50;;;;;;;;;;4996697;28;20492;-95
2021/12/14 09:13:34;;;;;;;43.50;38.97;;;;;;;;;;5002871;28;20827;-96
2021/12/14 09:16:03;;;;;;;43.92;39.33;;;;;;;;;;4987875;28;20486;-84
2021/12/14 09:18:32;;;;;;;41.83;37.23;;;;;;;;;;4994491;28;20631;-91
2021/12/14 09:21:01;;;;;;;44.43;39.73;;;;;;;;;;4994971;28;20905;-92
2021/12/14 09:23:33;;;;;;;44.63;39.83;;;;;;;;;;4994255;28;20440;-92
2021/12/14 09:26:03;;;;;;;42.45;38.22;;;;;;;;;;4994548;28;20422;-82
2021/12/14 09:28:31;;;;;;;44.20;39.42;;;;;;;;;;4997163;28;20232;-94
2021/12/14 09:31:01;;;;;;;44.15;39.20;;;;;;;;;;4997220;28;20202;-95
2021/12/14 09:33:30;;;;;;;45.27;40.20;;;;;;;;;;4980119;28;20208;-95
2021/12/14 09:35:58;;;;;;;44.78;40.20;;;;;;;;;;5001196;28;20514;-83
2021/12/14 09:38:32;;;;;;;45.60;40.23;;;;;;;;;;4993161;28;20205;-83
2021/12/14 09:41:00;;;;;;;44.20;39.42;;;;;;;;;;4992663;28;20513;-83
2021/12/14 09:43:29;;;;;;;44.97;40.27;;;;;;;;;;4994610;28;20209;-84
2021/12/14 09:45:59;;;;;;;46.10;41.20;;;;;;;;;;4994081;28;20419;-83
2021/12/14 09:48:27;;;;;;;41.37;37.13;;;;;;;;;;4993390;28;20464;-82
2021/12/14 09:50:55;;;;;;;45.03;40.03;;;;;;;;;;4993714;28;20448;-92
2021/12/14 09:53:24;;;;;;;42.93;38.43;;;;;;;;;;4996079;28;20435;-96
2021/12/14 09:55:55;;;;;;;42.43;37.93;;;;;;;;;;4999181;28;20785;-96
2021/12/14 09:58:25;;;;;;;45.53;40.67;;;;;;;;;;4998582;28;20461;-93
2021/12/14 10:00:57;;;;;;;43.40;39.00;;;;;;;;;;5000619;28;20419;-92
2021/12/14 10:03:24;;;;;;;43.53;39.17;;;;;;;;;;4981497;28;20498;-91
2021/12/14 10:05:54;;;;;;;45.33;40.67;;;;;;;;;;4997587;28;20614;-95
2021/12/14 10:08:25;;;;;;;49.00;41.73;;;;;;;;;;4998987;28;20463;-93
2021/12/14 10:11:00;;;;;;;45.57;40.97;;;;;;;;;;4997900;28;20461;-93
2021/12/14 10:13:28;;;;;;;46.17;41.17;;;;;;;;;;4997038;28;20550;-95
2021/12/14 10:15:57;;;;;;;48.27;41.03;;;;;;;;;;5002124;28;20455;-95
2021/12/14 10:18:26;;;;;;;47.10;40.27;;;;;;;;;;4997343;28;20416;-94
2021/12/14 10:20:55;;;;;;;49.10;41.30;;;;;;;;;;4997397;28;20465;-96
2021/12/14 10:23:23;;;;;;;47.10;42.00;;;;;;;;;;4998177;28;20436;-95
2021/12/14 10:25:52;;;;;;;47.88;42.97;;;;;;;;;;4999203;28;20435;-86
2021/12/14 10:28:20;;;;;;;45.43;40.73;;;;;;;;;;4997744;28;20225;-87
2021/12/14 10:30:49;;;;;;;47.57;42.80;;;;;;;;;;4998232;28;20419;-94
2021/12/14 10:33:18;;;;;;;50.40;44.97;;;;;;;;;;4996939;28;20448;-81
2021/12/14 10:35:50;;;;;;;51.23;43.63;;;;;;;;;;4996452;28;20954;-81
2021/12/14 10:38:23;;;;;;;47.87;40.97;;;;;;;;;;4995843;28;20936;-78
2021/12/14 10:43:39;;;;;;;49.00;43.73;;;;;;;;;;4995715;28;20477;-82
2021/12/14 10:46:08;;;;;;;48.73;43.43;;;;;;;;;;4995649;28;20412;-82
2021/12/14 10:48:39;;;;;;;47.70;42.27;;;;;;;;;;4994872;28;20488;-81
2021/12/14 10:51:08;;;;;;;50.23;44.70;;;;;;;;;;4994908;28;20462;-82
2021/12/14 10:53:36;;;;;;;54.03;44.53;;;;;;;;;;4978280;28;20453;-80
2021/12/14 10:56:11;;;;;;;48.37;42.83;;;;;;;;;;4996425;28;20423;-82
2021/12/14 10:58:39;;;;;;;48.63;42.60;;;;;;;;;;4994871;28;20540;-82
2021/12/14 11:01:08;;;;;;;47.17;42.30;;;;;;;;;;4997257;28;20430;-81
2021/12/14 11:03:41;;;;;;;48.03;42.10;;;;;;;;;;4982611;28;20965;-94
2021/12/14 11:06:12;;;;;;;52.63;46.33;;;;;;;;;;5003063;28;20454;-96
2021/12/14 11:08:48;;;;;;;46.97;42.07;;;;;;;;;;4970572;28;20581;-96
2021/12/14 11:11:18;;;;;;;48.03;42.83;;;;;;;;;;5004367;28;20419;-96
2021/12/14 11:13:47;;;;;;;40.33;36.33;;;;;;;;;;5001048;28;20466;-96
2021/12/14 11:16:21;;;;;;;49.27;44.10;;;;;;;;;;4983362;28;20426;-96
2021/12/14 11:18:49;;;;;;;46.87;42.00;;;;;;;;;;4996847;28;20445;-95
2021/12/14 11:21:20;;;;;;;49.53;43.17;;;;;;;;;;5007226;28;20515;-95
2021/12/14 11:23:54;;;;;;;44.97;40.17;;;;;;;;;;5008093;28;20424;-94
2021/12/14 11:29:13;;;;;;;40.77;36.43;;;;;;;;;;5007201;28;20466;-95
2021/12/14 11:31:44;;;;;;;47.17;42.43;;;;;;;;;;4990459;28;20416;-94
2021/12/14 11:34:19;;;;;;;52.63;44.30;;;;;;;;;;4992360;28;20459;-96
2021/12/14 11:37:00;;;;;;;46.17;39.83;;;;;;;;;;4995631;28;20470;-95
2021/12/14 11:39:28;;;;;;;42.77;38.40;;;;;;;;;;4995961;28;20460;-96
2021/12/14 11:41:58;;;;;;;44.43;39.83;;;;;;;;;;5008911;28;20411;-94
2021/12/14 11:44:30;;;;;;;47.20;42.10;;;;;;;;;;5008643;28;20419;-95
2021/12/14 11:47:21;;;;;;;47.40;42.30;;;;;;;;;;4992379;28;20424;-96
2021/12/14 11:49:55;;;;;;;48.40;43.30;;;;;;;;;;5013136;28;20423;-96
2021/12/14 11:52:42;;;;;;;44.40;39.80;;;;;;;;;;4989166;28;20432;-83
2021/12/14 11:55:48;;;;;;;45.93;41.20;;;;;;;;;;5008872;28;20430;-94
2021/12/14 11:58:20;;;;;;;42.03;36.97;;;;;;;;;;4929777;29;20525;-95
2021/12/14 12:00:55;;;;;;;47.25;42.05;;;;;;;;;;4928362;29;20463;-96
2021/12/14 12:03:25;;;;;;;46.47;41.57;;;;;;;;;;4929808;29;20199;-96
2021/12/14 12:06:06;;;;;;;48.80;43.40;;;;;;;;;;4931327;29;20476;-96
2021/12/14 12:11:22;;;;;;;49.23;43.93;;;;;;;;;;4930005;29;20412;-96
2021/12/14 12:13:52;;;;;;;48.23;43.20;;;;;;;;;;4913256;29;20459;-82
2021/12/14 12:16:21;;;;;;;50.60;44.83;;;;;;;;;;4906290;29;20431;-96
2021/12/14 12:19:14;;;;;;;48.70;43.47;;;;;;;;;;4922514;29;20467;-96
2021/12/14 12:21:44;;;;;;;45.83;41.13;;;;;;;;;;4919980;29;20517;-96
2021/12/14 12:24:30;;;;;;;46.93;42.10;;;;;;;;;;4886140;29;20495;-96
2021/12/14 12:27:12;;;;;;;48.17;43.03;;;;;;;;;;4917085;29;20459;-96
2021/12/14 12:29:40;;;;;;;44.47;40.00;;;;;;;;;;4901273;29;20869;-93
2021/12/14 12:32:17;;;;;;;49.80;44.60;;;;;;;;;;4952165;28;20434;-93
2021/12/14 12:34:47;;;;;;;46.57;41.53;;;;;;;;;;4998786;28;20411;-96
2021/12/14 12:37:18;;;;;;;47.27;42.37;;;;;;;;;;4995936;28;20784;-94
2021/12/14 12:39:48;;;;;;;47.73;42.70;;;;;;;;;;4992709;28;20457;-88
2021/12/14 12:42:16;;;;;;;44.47;39.80;;;;;;;;;;4995872;28;20460;-96
2021/12/14 12:44:44;;;;;;;45.83;39.33;;;;;;;;;;4997352;28;20447;-96
2021/12/14 12:47:17;;;;;;;42.67;38.17;;;;;;;;;;4976897;28;20487;-96
2021/12/14 12:49:47;;;;;;;48.73;43.13;;;;;;;;;;4980239;28;20466;-87
2021/12/14 12:52:15;;;;;;;48.23;43.00;;;;;;;;;;4993190;28;20474;-84
2021/12/14 12:54:47;;;;;;;52.70;45.93;;;;;;;;;;4999176;28;20879;-96
2021/12/14 12:57:20;;;;;;;49.50;43.87;;;;;;;;;;4995935;28;20832;-93
2021/12/14 12:59:50;;;;;;;52.90;44.37;;;;;;;;;;4995011;28;20451;-96
2021/12/14 13:02:19;;;;;;;50.27;43.37;;;;;;;;;;4994355;28;20464;-89
2021/12/14 13:04:48;;;;;;;52.77;46.70;;;;;;;;;;4992271;28;20441;-81
2021/12/14 13:07:15;;;;;;;54.70;43.87;;;;;;;;;;4992346;28;20446;-81
2021/12/14 13:10:01;;;;;;;55.40;46.37;;;;;;;;;;4992531;28;20509;-82
2021/12/14 13:12:40;;;;;;;56.30;46.77;;;;;;;;;;4991919;28;20448;-82
2021/12/14 13:15:22;;;;;;;52.87;46.43;;;;;;;;;;4992268;28;20496;-86
2021/12/14 13:17:49;;;;;;;52.93;47.20;;;;;;;;;;4977224;28;20449;-82
2021/12/14 13:20:17;;;;;;;54.23;47.40;;;;;;;;;;4992412;28;20436;-82
2021/12/14 13:22:48;;;;;;;52.23;46.30;;;;;;;;;;4992619;28;20448;-86
2021/12/14 13:25:15;;;;;;;53.33;45.77;;;;;;;;;;4995971;28;20411;-94
2021/12/14 13:27:44;;;;;;;53.23;45.97;;;;;;;;;;4994428;28;20425;-89
2021/12/14 13:30:14;;;;;;;54.17;46.10;;;;;;;;;;4997488;28;20517;-81
2021/12/14 13:32:43;;;;;;;50.13;44.77;;;;;;;;;;4997656;28;20423;-94
2021/12/14 13:35:14;;;;;;;50.40;42.97;;;;;;;;;;4980909;28;20446;-92
2021/12/14 13:37:42;;;;;;;53.87;48.07;;;;;;;;;;4996021;28;20921;-84
2021/12/14 13:40:12;;;;;;;48.00;42.80;;;;;;;;;;4996271;28;20411;-86
2021/12/14 13:42:44;;;;;;;50.47;44.90;;;;;;;;;;4997139;28;20495;-89
2021/12/14 13:45:16;;;;;;;43.50;38.83;;;;;;;;;;4996882;28;20495;-87
2021/12/14 13:47:50;;;;;;;50.87;45.47;;;;;;;;;;4997145;28;20463;-87
2021/12/14 13:50:19;;;;;;;56.13;45.80;;;;;;;;;;4996103;28;20496;-86
2021/12/14 13:52:47;;;;;;;54.00;46.57;;;;;;;;;;4996339;28;20415;-87
2021/12/14 13:55:23;;;;;;;55.87;46.73;;;;;;;;;;4979158;28;20464;-87
2021/12/14 13:57:54;;;;;;;49.53;43.50;;;;;;;;;;4997065;28;20414;-87
2021/12/14 14:00:25;;;;;;;54.57;47.60;;;;;;;;;;4996900;28;20796;-88
2021/12/14 14:02:53;;;;;;;55.63;48.40;;;;;;;;;;4997047;28;20427;-88
2021/12/14 14:05:23;;;;;;;58.70;47.73;;;;;;;;;;4996733;28;20440;-88
2021/12/14 14:07:55;;;;;;;55.03;48.60;;;;;;;;;;4997123;28;20419;-88
2021/12/14 14:10:23;;;;;;;52.97;46.60;;;;;;;;;;4996533;28;21023;-88
2021/12/14 14:12:53;;;;;;;58.63;48.70;;;;;;;;;;4996517;28;20422;-88
2021/12/14 14:15:23;;;;;;;55.17;47.80;;;;;;;;;;4996762;28;20455;-88
2021/12/14 14:17:53;;;;;;;58.30;49.37;;;;;;;;;;4996749;28;20472;-89
2021/12/14 14:20:23;;;;;;;57.03;49.80;;;;;;;;;;4996206;28;20453;-88
2021/12/14 14:22:53;;;;;;;56.87;49.97;;;;;;;;;;4996654;28;20437;-88
2021/12/14 14:25:21;;;;;;;57.23;48.33;;;;;;;;;;4996540;28;20440;-89
2021/12/14 14:27:51;;;;;;;66.73;50.10;;;;;;;;;;4996397;28;20988;-88
2021/12/14 14:30:50;;;;;;;55.20;47.73;;;;;;;;;;4996816;28;20458;-88
2021/12/14 14:33:22;;;;;;;55.33;47.93;;;;;;;;;;4917159;29;20486;-88
2021/12/14 14:35:51;;;;;;;55.73;48.80;;;;;;;;;;4917433;29;20488;-88
2021/12/14 14:38:39;;;;;;;67.20;50.40;;;;;;;;;;4901603;29;20463;-89
2021/12/14 14:41:25;;;;;;;58.00;49.20;;;;;;;;;;4900996;29;20474;-88
2021/12/14 14:43:56;;;;;;;63.60;52.20;;;;;;;;;;4916395;29;20435;-86
2021/12/14 14:46:42;;;;;;;58.17;50.70;;;;;;;;;;4916802;29;20448;-86
2021/12/14 14:49:12;;;;;;;61.53;50.97;;;;;;;;;;4900946;29;20539;-86
2021/12/14 14:51:47;;;;;;;64.63;51.37;;;;;;;;;;4901083;29;20502;-87
2021/12/14 14:54:33;;;;;;;61.33;47.80;;;;;;;;;;4915378;29;20456;-85
2021/12/14 14:57:21;;;;;;;67.97;52.93;;;;;;;;;;4916550;29;20535;-85
2021/12/14 15:00:05;;;;;;;60.23;49.17;;;;;;;;;;4916221;29;20435;-86
2021/12/14 15:02:48;;;;;;;61.43;49.93;;;;;;;;;;4900730;29;20600;-86
2021/12/14 15:05:22;;;;;;;70.13;51.37;;;;;;;;;;4916362;29;20460;-86
2021/12/14 15:07:54;;;;;;;65.37;49.17;;;;;;;;;;4956089;28;20834;-87
2021/12/14 15:10:23;;;;;;;64.03;48.87;;;;;;;;;;4958579;28;20489;-87
2021/12/14 15:13:07;;;;;;;64.03;50.77;;;;;;;;;;4975918;28;20482;-86
2021/12/14 15:15:35;;;;;;;59.97;49.13;;;;;;;;;;4975515;28;20540;-90